createdAt,value
2017-12-15T01:37:26.832Z,989.69
2017-12-15T01:37:27.402Z,989.67
2017-12-15T01:37:28.001Z,989.69
2017-12-15T01:37:28.601Z,989.67
2017-12-15T01:37:29.203Z,989.70
2017-12-15T01:37:29.801Z,989.72
2017-12-15T01:37:30.400Z,989.71
2017-12-15T01:37:31.000Z,989.70
2017-12-15T01:38:25.508Z,989.71
2017-12-15T01:38:26.078Z,989.68
2017-12-15T01:38:26.680Z,989.65
2017-12-15T01:38:27.277Z,989.65
2017-12-15T01:38:27.879Z,989.71
2017-12-15T01:38:28.478Z,989.68
2017-12-15T01:38:29.079Z,989.65
2017-12-15T01:38:29.677Z,989.67
2017-12-15T01:39:23.136Z,989.70
2017-12-15T01:39:23.733Z,989.69
2017-12-15T01:39:24.332Z,989.70
2017-12-15T01:39:24.938Z,989.66
2017-12-15T01:39:25.530Z,989.68
2017-12-15T01:39:26.131Z,989.63
2017-12-15T01:39:26.730Z,989.64
2017-12-15T01:39:27.329Z,989.66
2017-12-15T01:40:20.790Z,989.61
2017-12-15T01:40:21.385Z,989.63
2017-12-15T01:40:21.982Z,989.67
2017-12-15T01:40:22.589Z,989.68
2017-12-15T01:40:23.189Z,989.67
2017-12-15T01:40:23.783Z,989.63
2017-12-15T01:40:24.382Z,989.65
2017-12-15T01:40:24.984Z,989.67
2017-12-15T01:41:19.464Z,989.67
2017-12-15T01:41:20.060Z,989.67
2017-12-15T01:41:20.659Z,989.68
2017-12-15T01:41:21.261Z,989.64
2017-12-15T01:41:21.858Z,989.66
2017-12-15T01:41:22.459Z,989.68
2017-12-15T01:41:23.059Z,989.67
2017-12-15T01:41:23.661Z,989.69
2017-12-15T01:42:17.117Z,989.66
2017-12-15T01:42:17.712Z,989.63
2017-12-15T01:42:18.311Z,989.63
2017-12-15T01:42:18.913Z,989.63
2017-12-15T01:42:19.513Z,989.63
2017-12-15T01:42:20.112Z,989.66
2017-12-15T01:42:20.714Z,989.65
2017-12-15T01:42:21.310Z,989.67
2017-12-15T01:43:16.327Z,989.62
2017-12-15T01:43:16.899Z,989.67
2017-12-15T01:43:17.499Z,989.69
2017-12-15T01:43:18.100Z,989.69
2017-12-15T01:43:18.699Z,989.66
2017-12-15T01:43:19.299Z,989.71
2017-12-15T01:44:40.378Z,989.68
2017-12-15T01:44:40.971Z,989.65
2017-12-15T01:44:41.570Z,989.66
2017-12-15T01:44:42.172Z,989.67
2017-12-15T01:44:42.822Z,989.67
2017-12-15T01:44:43.372Z,989.65
2017-12-15T01:44:43.969Z,989.70
2017-12-15T01:44:44.573Z,989.66
2017-12-15T01:44:45.170Z,989.63
2017-12-15T01:44:45.768Z,989.68
2017-12-15T01:44:46.370Z,989.69
2017-12-15T01:44:46.971Z,989.67
2017-12-15T01:44:47.568Z,989.68
2017-12-15T01:44:48.167Z,989.67
2017-12-15T01:44:48.772Z,989.68
2017-12-15T01:47:01.856Z,989.67
2017-12-15T01:47:02.361Z,989.67
2017-12-15T01:47:02.959Z,989.67
2017-12-15T01:47:03.558Z,989.67
2017-12-15T01:47:04.157Z,989.67
2017-12-15T01:47:04.759Z,989.66
2017-12-15T01:47:05.358Z,989.68
2017-12-15T01:47:05.957Z,989.70
2017-12-15T01:47:06.558Z,989.65
2017-12-15T01:47:07.158Z,989.65
2017-12-15T01:47:07.757Z,989.69
2017-12-15T01:48:02.207Z,989.68
2017-12-15T01:48:02.713Z,989.70
2017-12-15T01:48:03.311Z,989.67
2017-12-15T01:48:03.909Z,989.70
2017-12-15T01:48:04.511Z,989.70
2017-12-15T01:48:05.110Z,989.66
2017-12-15T01:48:05.709Z,989.67
2017-12-15T01:48:06.309Z,989.66
2017-12-15T01:49:00.780Z,989.69
2017-12-15T01:49:01.378Z,989.66
2017-12-15T01:49:01.978Z,989.65
2017-12-15T01:49:02.579Z,989.69
2017-12-15T01:49:03.176Z,989.69
2017-12-15T01:49:03.779Z,989.65
2017-12-15T01:49:04.376Z,989.70
2017-12-15T01:49:04.978Z,989.69
2017-12-15T01:49:58.433Z,989.68
2017-12-15T01:49:59.030Z,989.70
2017-12-15T01:49:59.636Z,989.70
2017-12-15T01:50:00.229Z,989.72
2017-12-15T01:50:00.828Z,989.68
2017-12-15T01:50:01.428Z,989.69
2017-12-15T01:50:02.027Z,989.65
2017-12-15T01:50:02.628Z,989.67
2017-12-15T01:50:56.085Z,989.72
2017-12-15T01:50:56.683Z,989.68
2017-12-15T01:50:57.283Z,989.67
2017-12-15T01:50:57.882Z,989.66
2017-12-15T01:50:58.481Z,989.70
2017-12-15T01:50:59.084Z,989.74
2017-12-15T01:50:59.681Z,989.71
2017-12-15T01:51:00.281Z,989.73
2017-12-15T01:51:54.760Z,989.72
2017-12-15T01:51:55.361Z,989.71
2017-12-15T01:51:55.960Z,989.68
2017-12-15T01:51:56.556Z,989.66
2017-12-15T01:51:57.157Z,989.72
2017-12-15T01:51:57.758Z,989.71
2017-12-15T01:51:58.359Z,989.71
2017-12-15T01:51:58.955Z,989.72
2017-12-15T01:52:53.435Z,989.77
2017-12-15T01:52:54.032Z,989.69
2017-12-15T01:52:54.632Z,989.71
2017-12-15T01:52:55.233Z,989.72
2017-12-15T01:52:55.831Z,989.75
2017-12-15T01:52:56.433Z,989.70
2017-12-15T01:52:57.033Z,989.74
2017-12-15T01:52:57.631Z,989.73
2017-12-15T01:53:52.142Z,989.75
2017-12-15T01:53:52.709Z,989.74
2017-12-15T01:53:53.307Z,989.75
2017-12-15T01:53:53.907Z,989.76
2017-12-15T01:53:54.507Z,989.75
2017-12-15T01:53:55.108Z,989.76
2017-12-15T01:53:55.707Z,989.74
2017-12-15T01:53:56.305Z,989.71
2017-12-15T01:54:50.786Z,989.78
2017-12-15T01:54:51.383Z,989.78
2017-12-15T01:54:51.983Z,989.74
2017-12-15T01:54:52.584Z,989.77
2017-12-15T01:54:53.183Z,989.75
2017-12-15T01:54:53.783Z,989.79
2017-12-15T01:54:54.383Z,989.76
2017-12-15T01:54:54.987Z,989.74
2017-12-15T01:55:49.463Z,989.78
2017-12-15T01:55:50.061Z,989.74
2017-12-15T01:55:50.659Z,989.76
2017-12-15T01:55:51.258Z,989.73
2017-12-15T01:55:51.860Z,989.77
2017-12-15T01:55:52.460Z,989.77
2017-12-15T01:55:53.058Z,989.76
2017-12-15T01:55:53.661Z,989.73
2017-12-15T01:56:48.138Z,989.71
2017-12-15T01:56:48.734Z,989.74
2017-12-15T01:56:49.336Z,989.72
2017-12-15T01:56:49.935Z,989.76
2017-12-15T01:56:50.535Z,989.72
2017-12-15T01:56:51.135Z,989.75
2017-12-15T01:56:51.735Z,989.71
2017-12-15T01:56:52.335Z,989.70
2017-12-15T01:57:46.819Z,989.73
2017-12-15T01:57:47.411Z,989.70
2017-12-15T01:57:48.011Z,989.70
2017-12-15T01:57:48.611Z,989.65
2017-12-15T01:57:49.210Z,989.72
2017-12-15T01:57:49.811Z,989.67
2017-12-15T01:57:50.410Z,989.70
2017-12-15T01:57:51.010Z,989.71
2017-12-15T01:58:45.490Z,989.73
2017-12-15T01:58:46.089Z,989.70
2017-12-15T01:58:46.686Z,989.69
2017-12-15T01:58:47.287Z,989.70
2017-12-15T01:58:47.886Z,989.72
2017-12-15T01:58:48.486Z,989.73
2017-12-15T01:58:49.086Z,989.71
2017-12-15T01:58:49.685Z,989.70
2017-12-15T01:59:44.198Z,989.68
2017-12-15T01:59:44.762Z,989.68
2017-12-15T01:59:45.363Z,989.70
2017-12-15T01:59:45.963Z,989.67
2017-12-15T01:59:46.567Z,989.74
2017-12-15T01:59:47.162Z,989.74
2017-12-15T01:59:47.761Z,989.73
2017-12-15T01:59:48.362Z,989.72
2017-12-15T02:00:41.818Z,989.69
2017-12-15T02:00:42.415Z,989.70
2017-12-15T02:00:43.023Z,989.70
2017-12-15T02:00:43.614Z,989.68
2017-12-15T02:00:44.215Z,989.67
2017-12-15T02:00:44.814Z,989.66
2017-12-15T02:00:45.413Z,989.69
2017-12-15T02:00:46.014Z,989.70
2017-12-15T02:01:40.492Z,989.66
2017-12-15T02:01:41.089Z,989.66
2017-12-15T02:01:41.691Z,989.67
2017-12-15T02:01:42.290Z,989.67
2017-12-15T02:01:42.890Z,989.66
2017-12-15T02:01:43.489Z,989.65
2017-12-15T02:01:44.089Z,989.68
2017-12-15T02:01:44.690Z,989.63
2017-12-15T02:02:38.146Z,989.71
2017-12-15T02:02:38.743Z,989.71
2017-12-15T02:02:39.342Z,989.67
2017-12-15T02:02:39.942Z,989.67
2017-12-15T02:02:40.542Z,989.71
2017-12-15T02:02:41.142Z,989.66
2017-12-15T02:02:41.741Z,989.70
2017-12-15T02:02:42.348Z,989.67
2017-12-15T02:03:36.819Z,989.67
2017-12-15T02:03:37.417Z,989.65
2017-12-15T02:03:38.021Z,989.67
2017-12-15T02:03:38.618Z,989.70
2017-12-15T02:03:39.216Z,989.69
2017-12-15T02:03:39.817Z,989.67
2017-12-15T02:03:40.416Z,989.64
2017-12-15T02:03:41.018Z,989.68
2017-12-15T02:04:34.474Z,989.66
2017-12-15T02:04:35.071Z,989.66
2017-12-15T02:04:35.670Z,989.66
2017-12-15T02:04:36.270Z,989.65
2017-12-15T02:04:36.869Z,989.70
2017-12-15T02:04:37.469Z,989.68
2017-12-15T02:04:38.070Z,989.68
2017-12-15T02:04:38.669Z,989.70
2017-12-15T02:05:32.157Z,989.73
2017-12-15T02:05:32.723Z,989.66
2017-12-15T02:05:33.321Z,989.69
2017-12-15T02:05:33.920Z,989.69
2017-12-15T02:05:34.520Z,989.69
2017-12-15T02:05:35.121Z,989.69
2017-12-15T02:05:35.720Z,989.71
2017-12-15T02:05:36.320Z,989.69
2017-12-15T02:06:29.777Z,989.70
2017-12-15T02:06:30.375Z,989.73
2017-12-15T02:06:30.973Z,989.72
2017-12-15T02:06:31.573Z,989.68
2017-12-15T02:06:32.172Z,989.74
2017-12-15T02:06:32.773Z,989.70
2017-12-15T02:06:33.372Z,989.72
2017-12-15T02:06:33.973Z,989.70
2017-12-15T02:07:28.451Z,989.71
2017-12-15T02:07:29.048Z,989.69
2017-12-15T02:07:29.649Z,989.73
2017-12-15T02:07:30.247Z,989.74
2017-12-15T02:07:30.848Z,989.73
2017-12-15T02:07:31.450Z,989.71
2017-12-15T02:07:32.048Z,989.73
2017-12-15T02:07:32.647Z,989.72
2017-12-15T02:08:27.128Z,989.73
2017-12-15T02:08:27.724Z,989.72
2017-12-15T02:08:28.323Z,989.71
2017-12-15T02:08:28.933Z,989.72
2017-12-15T02:08:29.523Z,989.73
2017-12-15T02:08:30.124Z,989.76
2017-12-15T02:08:30.723Z,989.72
2017-12-15T02:08:31.321Z,989.74
2017-12-15T02:09:24.778Z,989.79
2017-12-15T02:09:25.376Z,989.76
2017-12-15T02:09:25.975Z,989.75
2017-12-15T02:09:26.578Z,989.72
2017-12-15T02:09:27.177Z,989.75
2017-12-15T02:09:27.776Z,989.74
2017-12-15T02:09:28.376Z,989.74
2017-12-15T02:09:28.976Z,989.75
2017-12-15T02:10:22.431Z,989.79
2017-12-15T02:10:23.028Z,989.79
2017-12-15T02:10:23.628Z,989.79
2017-12-15T02:10:24.228Z,989.76
2017-12-15T02:10:24.827Z,989.78
2017-12-15T02:10:25.429Z,989.81
2017-12-15T02:10:26.026Z,989.77
2017-12-15T02:10:26.627Z,989.83
2017-12-15T02:11:20.115Z,989.79
2017-12-15T02:11:20.684Z,989.81
2017-12-15T02:11:21.279Z,989.82
2017-12-15T02:11:21.878Z,989.79
2017-12-15T02:11:22.479Z,989.79
2017-12-15T02:11:23.080Z,989.80
2017-12-15T02:11:23.679Z,989.77
2017-12-15T02:11:24.278Z,989.80
2017-12-15T02:12:18.758Z,989.81
2017-12-15T02:12:19.355Z,989.80
2017-12-15T02:12:19.953Z,989.81
2017-12-15T02:12:20.555Z,989.81
2017-12-15T02:12:21.155Z,989.77
2017-12-15T02:12:21.754Z,989.80
2017-12-15T02:12:22.353Z,989.78
2017-12-15T02:12:22.952Z,989.83
2017-12-15T02:13:16.410Z,989.81
2017-12-15T02:13:17.010Z,989.86
2017-12-15T02:13:17.646Z,989.81
2017-12-15T02:13:18.207Z,989.82
2017-12-15T02:13:18.806Z,989.83
2017-12-15T02:13:19.408Z,989.82
2017-12-15T02:13:20.010Z,989.82
2017-12-15T02:13:20.607Z,989.80
2017-12-15T02:14:15.086Z,989.84
2017-12-15T02:14:15.681Z,989.81
2017-12-15T02:14:16.282Z,989.81
2017-12-15T02:14:16.883Z,989.83
2017-12-15T02:14:17.480Z,989.84
2017-12-15T02:14:18.080Z,989.80
2017-12-15T02:14:18.681Z,989.79
2017-12-15T02:14:19.280Z,989.81
2017-12-15T02:15:13.761Z,989.83
2017-12-15T02:15:14.359Z,989.81
2017-12-15T02:15:14.957Z,989.84
2017-12-15T02:15:15.558Z,989.85
2017-12-15T02:15:16.156Z,989.84
2017-12-15T02:15:16.756Z,989.83
2017-12-15T02:15:17.356Z,989.83
2017-12-15T02:15:17.956Z,989.82
2017-12-15T02:16:11.413Z,989.86
2017-12-15T02:16:12.010Z,989.86
2017-12-15T02:16:12.611Z,989.84
2017-12-15T02:16:13.210Z,989.84
2017-12-15T02:16:13.809Z,989.85
2017-12-15T02:16:14.409Z,989.87
2017-12-15T02:16:15.009Z,989.86
2017-12-15T02:16:15.609Z,989.84
2017-12-15T02:17:09.091Z,989.85
2017-12-15T02:17:09.663Z,989.84
2017-12-15T02:17:10.261Z,989.81
2017-12-15T02:17:10.862Z,989.81
2017-12-15T02:17:11.463Z,989.83
2017-12-15T02:17:12.062Z,989.84
2017-12-15T02:17:12.661Z,989.82
2017-12-15T02:17:13.262Z,989.79
2017-12-15T02:18:07.739Z,989.84
2017-12-15T02:18:08.336Z,989.80
2017-12-15T02:18:08.937Z,989.84
2017-12-15T02:18:09.540Z,989.84
2017-12-15T02:18:10.135Z,989.88
2017-12-15T02:18:10.736Z,989.91
2017-12-15T02:18:11.338Z,989.85
2017-12-15T02:18:11.937Z,989.84
2017-12-15T02:19:06.417Z,989.84
2017-12-15T02:19:07.013Z,989.82
2017-12-15T02:19:07.612Z,989.82
2017-12-15T02:19:08.211Z,989.81
2017-12-15T02:19:08.813Z,989.84
2017-12-15T02:19:09.412Z,989.88
2017-12-15T02:19:10.011Z,989.86
2017-12-15T02:19:10.612Z,989.86
2017-12-15T02:20:04.076Z,989.85
2017-12-15T02:20:04.665Z,989.84
2017-12-15T02:20:05.264Z,989.84
2017-12-15T02:20:05.863Z,989.85
2017-12-15T02:20:06.464Z,989.86
2017-12-15T02:20:07.063Z,989.87
2017-12-15T02:20:07.664Z,989.84
2017-12-15T02:20:08.263Z,989.86
2017-12-15T02:21:02.743Z,989.85
2017-12-15T02:21:03.340Z,989.83
2017-12-15T02:21:03.939Z,989.79
2017-12-15T02:21:04.539Z,989.78
2017-12-15T02:21:05.140Z,989.79
2017-12-15T02:21:05.741Z,989.79
2017-12-15T02:21:06.339Z,989.85
2017-12-15T02:21:06.938Z,989.82
2017-12-15T02:22:01.443Z,989.80
2017-12-15T02:22:02.016Z,989.83
2017-12-15T02:22:02.615Z,989.83
2017-12-15T02:22:03.215Z,989.82
2017-12-15T02:22:03.816Z,989.85
2017-12-15T02:22:04.414Z,989.84
2017-12-15T02:22:05.014Z,989.82
2017-12-15T02:22:05.622Z,989.83
2017-12-15T02:23:00.094Z,989.87
2017-12-15T02:23:00.693Z,989.83
2017-12-15T02:23:01.292Z,989.82
2017-12-15T02:23:01.891Z,989.83
2017-12-15T02:23:02.493Z,989.86
2017-12-15T02:23:03.093Z,989.87
2017-12-15T02:23:03.690Z,989.86
2017-12-15T02:23:04.288Z,989.84
2017-12-15T02:23:57.748Z,989.90
2017-12-15T02:23:58.344Z,989.88
2017-12-15T02:23:58.943Z,989.87
2017-12-15T02:23:59.544Z,989.89
2017-12-15T02:24:00.142Z,989.89
2017-12-15T02:24:00.742Z,989.91
2017-12-15T02:24:01.343Z,989.86
2017-12-15T02:24:01.942Z,989.87
2017-12-15T02:24:55.398Z,989.88
2017-12-15T02:24:55.994Z,989.88
2017-12-15T02:24:56.594Z,989.90
2017-12-15T02:24:57.195Z,989.94
2017-12-15T02:24:57.794Z,989.90
2017-12-15T02:24:58.394Z,989.86
2017-12-15T02:24:58.994Z,989.86
2017-12-15T02:24:59.595Z,989.87
2017-12-15T02:25:54.074Z,989.89
2017-12-15T02:25:54.669Z,989.87
2017-12-15T02:25:55.272Z,989.89
2017-12-15T02:25:55.869Z,989.87
2017-12-15T02:25:56.470Z,989.90
2017-12-15T02:25:57.069Z,989.89
2017-12-15T02:25:57.669Z,989.91
2017-12-15T02:25:58.269Z,989.89
2017-12-15T02:26:52.771Z,989.91
2017-12-15T02:26:53.346Z,989.93
2017-12-15T02:26:53.946Z,989.94
2017-12-15T02:26:54.547Z,989.91
2017-12-15T02:26:55.146Z,989.91
2017-12-15T02:26:55.745Z,989.92
2017-12-15T02:26:56.345Z,989.87
2017-12-15T02:26:56.946Z,989.87
2017-12-15T02:27:51.424Z,989.92
2017-12-15T02:27:52.021Z,989.90
2017-12-15T02:27:52.621Z,989.93
2017-12-15T02:27:53.221Z,989.92
2017-12-15T02:27:53.821Z,989.94
2017-12-15T02:27:54.422Z,989.91
2017-12-15T02:27:55.020Z,989.93
2017-12-15T02:27:55.620Z,989.97
2017-12-15T02:28:50.100Z,989.94
2017-12-15T02:28:50.698Z,989.95
2017-12-15T02:28:51.296Z,989.91
2017-12-15T02:28:51.896Z,989.93
2017-12-15T02:28:52.498Z,989.95
2017-12-15T02:28:53.097Z,989.98
2017-12-15T02:28:53.695Z,989.93
2017-12-15T02:28:54.296Z,989.92
2017-12-15T02:29:47.752Z,989.94
2017-12-15T02:29:48.350Z,989.93
2017-12-15T02:29:48.950Z,990.00
2017-12-15T02:29:49.549Z,989.97
2017-12-15T02:29:50.149Z,989.96
2017-12-15T02:29:50.750Z,989.93
2017-12-15T02:29:51.353Z,989.97
2017-12-15T02:29:51.948Z,989.93
2017-12-15T02:30:45.404Z,989.98
2017-12-15T02:30:46.000Z,989.94
2017-12-15T02:30:46.600Z,990.00
2017-12-15T02:30:47.200Z,989.98
2017-12-15T02:30:47.799Z,989.96
2017-12-15T02:30:48.402Z,989.99
2017-12-15T02:30:49.000Z,989.95
2017-12-15T02:30:49.599Z,989.96
2017-12-15T02:31:44.096Z,989.99
2017-12-15T02:31:44.676Z,990.01
2017-12-15T02:31:45.277Z,989.98
2017-12-15T02:31:45.874Z,989.95
2017-12-15T02:31:46.475Z,989.96
2017-12-15T02:31:47.076Z,989.97
2017-12-15T02:31:47.675Z,989.96
2017-12-15T02:31:48.276Z,989.99
2017-12-15T02:32:42.786Z,990.01
2017-12-15T02:32:43.353Z,990.03
2017-12-15T02:32:43.952Z,990.03
2017-12-15T02:32:44.551Z,989.99
2017-12-15T02:32:45.150Z,990.01
2017-12-15T02:32:45.750Z,990.02
2017-12-15T02:32:46.351Z,990.01
2017-12-15T02:32:46.951Z,990.03
2017-12-15T02:33:41.432Z,990.01
2017-12-15T02:33:42.028Z,989.99
2017-12-15T02:33:42.627Z,990.00
2017-12-15T02:33:43.228Z,989.99
2017-12-15T02:33:43.835Z,990.00
2017-12-15T02:33:44.427Z,989.97
2017-12-15T02:33:45.027Z,989.98
2017-12-15T02:33:45.628Z,990.03
2017-12-15T02:51:38.516Z,990.08
2017-12-15T02:51:38.912Z,990.06
2017-12-15T02:51:38.982Z,990.07
2017-12-15T02:51:39.465Z,990.06
2017-12-15T02:51:40.070Z,990.04
2017-12-15T02:51:40.665Z,990.09
2017-12-15T02:51:41.265Z,990.09
2017-12-15T02:51:41.864Z,990.11
2017-12-15T02:52:35.312Z,990.08
2017-12-15T02:52:35.908Z,990.11
2017-12-15T02:52:36.508Z,990.07
2017-12-15T02:52:37.107Z,990.09
2017-12-15T02:52:37.707Z,990.06
2017-12-15T02:52:38.306Z,990.07
2017-12-15T02:52:38.907Z,990.10
2017-12-15T02:52:39.510Z,990.12
2017-12-15T02:53:32.963Z,990.07
2017-12-15T02:53:33.562Z,990.09
2017-12-15T02:53:34.160Z,990.07
2017-12-15T02:53:34.759Z,990.07
2017-12-15T02:53:35.360Z,990.09
2017-12-15T02:53:35.966Z,990.09
2017-12-15T02:53:36.558Z,990.08
2017-12-15T02:53:37.159Z,990.08
2017-12-15T02:54:31.672Z,990.05
2017-12-15T02:54:32.235Z,990.14
2017-12-15T02:54:32.834Z,990.11
2017-12-15T02:54:33.435Z,990.12
2017-12-15T02:54:34.037Z,990.07
2017-12-15T02:54:34.633Z,990.11
2017-12-15T02:54:35.234Z,990.10
2017-12-15T02:54:35.834Z,990.10
2017-12-15T02:55:29.292Z,990.11
2017-12-15T02:55:29.888Z,990.12
2017-12-15T02:55:30.488Z,990.07
2017-12-15T02:55:31.087Z,990.07
2017-12-15T02:55:31.688Z,990.06
2017-12-15T02:55:32.287Z,990.06
2017-12-15T02:55:32.887Z,990.09
2017-12-15T02:55:33.488Z,990.11
2017-12-15T02:56:27.966Z,990.13
2017-12-15T02:56:28.564Z,990.13
2017-12-15T02:56:29.163Z,990.15
2017-12-15T02:56:29.763Z,990.09
2017-12-15T02:56:30.362Z,990.11
2017-12-15T02:56:30.965Z,990.10
2017-12-15T02:56:31.566Z,990.14
2017-12-15T02:56:32.164Z,990.12
2017-12-15T02:57:25.618Z,990.14
2017-12-15T02:57:26.216Z,990.13
2017-12-15T02:57:26.816Z,990.12
2017-12-15T02:57:27.416Z,990.13
2017-12-15T02:57:28.016Z,990.13
2017-12-15T02:57:28.615Z,990.11
2017-12-15T02:57:29.215Z,990.14
2017-12-15T02:57:29.816Z,990.13
2017-12-15T02:58:23.271Z,990.13
2017-12-15T02:58:23.869Z,990.10
2017-12-15T02:58:24.468Z,990.12
2017-12-15T02:58:25.068Z,990.14
2017-12-15T02:58:25.667Z,990.14
2017-12-15T02:58:26.268Z,990.12
2017-12-15T02:58:26.867Z,990.13
2017-12-15T02:58:27.467Z,990.12
2017-12-15T02:59:20.923Z,990.14
2017-12-15T02:59:21.520Z,990.09
2017-12-15T02:59:22.120Z,990.07
2017-12-15T02:59:22.721Z,990.11
2017-12-15T02:59:23.319Z,990.10
2017-12-15T02:59:23.924Z,990.11
2017-12-15T02:59:24.518Z,990.09
2017-12-15T02:59:25.119Z,990.11
2017-12-15T03:00:18.605Z,990.06
2017-12-15T03:00:19.171Z,990.09
2017-12-15T03:00:19.770Z,990.08
2017-12-15T03:00:20.370Z,990.10
2017-12-15T03:00:20.978Z,990.14
2017-12-15T03:00:21.572Z,990.11
2017-12-15T03:00:22.170Z,990.12
2017-12-15T03:00:22.769Z,990.07
2017-12-15T03:01:16.226Z,990.10
2017-12-15T03:01:16.823Z,990.07
2017-12-15T03:01:17.424Z,990.07
2017-12-15T03:01:18.023Z,990.09
2017-12-15T03:01:18.623Z,990.09
2017-12-15T03:01:19.231Z,990.12
2017-12-15T03:01:19.824Z,990.09
2017-12-15T03:01:20.422Z,990.10
2017-12-15T03:02:13.879Z,990.11
2017-12-15T03:02:14.494Z,990.11
2017-12-15T03:02:15.075Z,990.12
2017-12-15T03:02:15.677Z,990.12
2017-12-15T03:02:16.274Z,990.13
2017-12-15T03:02:16.877Z,990.14
2017-12-15T03:02:17.481Z,990.13
2017-12-15T03:02:18.073Z,990.13
2017-12-15T03:03:11.530Z,990.15
2017-12-15T03:03:12.127Z,990.08
2017-12-15T03:03:12.727Z,990.14
2017-12-15T03:03:13.325Z,990.12
2017-12-15T03:03:13.926Z,990.12
2017-12-15T03:03:14.526Z,990.13
2017-12-15T03:03:15.125Z,990.12
2017-12-15T03:03:15.726Z,990.13
2017-12-15T03:04:10.205Z,990.08
2017-12-15T03:04:10.803Z,990.11
2017-12-15T03:04:11.402Z,990.12
2017-12-15T03:04:12.001Z,990.14
2017-12-15T03:04:12.601Z,990.13
2017-12-15T03:04:13.201Z,990.10
2017-12-15T03:04:13.802Z,990.08
2017-12-15T03:04:14.402Z,990.11
2017-12-15T03:05:08.880Z,990.11
2017-12-15T03:05:09.488Z,990.11
2017-12-15T03:05:10.077Z,990.14
2017-12-15T03:05:10.678Z,990.10
2017-12-15T03:05:11.277Z,990.11
2017-12-15T03:05:11.878Z,990.13
2017-12-15T03:05:12.476Z,990.09
2017-12-15T03:05:13.077Z,990.15
2017-12-15T03:06:07.586Z,990.13
2017-12-15T03:06:08.153Z,990.16
2017-12-15T03:06:08.753Z,990.15
2017-12-15T03:06:09.356Z,990.15
2017-12-15T03:06:09.954Z,990.11
2017-12-15T03:06:10.553Z,990.11
2017-12-15T03:06:11.154Z,990.08
2017-12-15T03:06:11.752Z,990.12
2017-12-15T03:07:05.208Z,990.09
2017-12-15T03:07:05.806Z,990.10
2017-12-15T03:07:06.405Z,990.12
2017-12-15T03:07:07.005Z,990.13
2017-12-15T03:07:07.605Z,990.11
2017-12-15T03:07:08.204Z,990.08
2017-12-15T03:07:08.805Z,990.12
2017-12-15T03:07:09.403Z,990.11
2017-12-15T03:08:03.371Z,990.14
2017-12-15T03:08:03.974Z,990.14
2017-12-15T03:08:04.568Z,990.14
2017-12-15T03:08:05.168Z,990.11
2017-12-15T03:08:05.769Z,990.13
2017-12-15T03:08:06.368Z,990.10
2017-12-15T03:08:06.968Z,990.15
2017-12-15T03:09:01.433Z,990.13
2017-12-15T03:09:02.030Z,990.12
2017-12-15T03:09:02.629Z,990.12
2017-12-15T03:09:03.229Z,990.13
2017-12-15T03:09:03.828Z,990.12
2017-12-15T03:09:04.428Z,990.15
2017-12-15T03:09:05.028Z,990.12
2017-12-15T03:09:05.628Z,990.13
2017-12-15T03:09:59.087Z,990.13
2017-12-15T03:09:59.682Z,990.13
2017-12-15T03:10:00.282Z,990.17
2017-12-15T03:10:00.896Z,990.17
2017-12-15T03:10:01.481Z,990.17
2017-12-15T03:10:02.082Z,990.20
2017-12-15T03:10:02.682Z,990.15
2017-12-15T03:10:03.281Z,990.20
2017-12-15T03:10:56.739Z,990.18
2017-12-15T03:10:57.335Z,990.14
2017-12-15T03:10:57.933Z,990.15
2017-12-15T03:10:58.534Z,990.13
2017-12-15T03:10:59.131Z,990.16
2017-12-15T03:10:59.733Z,990.16
2017-12-15T03:11:00.332Z,990.18
2017-12-15T03:11:00.941Z,990.19
2017-12-15T03:11:55.436Z,990.21
2017-12-15T03:11:56.009Z,990.17
2017-12-15T03:11:56.609Z,990.14
2017-12-15T03:11:57.209Z,990.15
2017-12-15T03:11:57.808Z,990.20
2017-12-15T03:11:58.408Z,990.16
2017-12-15T03:11:59.007Z,990.17
2017-12-15T03:11:59.612Z,990.11
2017-12-15T03:12:54.107Z,990.21
2017-12-15T03:12:54.688Z,990.21
2017-12-15T03:12:55.284Z,990.20
2017-12-15T03:12:55.938Z,990.20
2017-12-15T03:12:56.485Z,990.19
2017-12-15T03:12:57.084Z,990.16
2017-12-15T03:12:57.683Z,990.21
2017-12-15T03:12:58.284Z,990.23
2017-12-15T03:13:51.741Z,990.22
2017-12-15T03:13:52.338Z,990.23
2017-12-15T03:13:52.936Z,990.23
2017-12-15T03:13:53.537Z,990.23
2017-12-15T03:13:54.137Z,990.18
2017-12-15T03:13:54.736Z,990.20
2017-12-15T03:13:55.335Z,990.21
2017-12-15T03:13:55.936Z,990.23
2017-12-15T03:14:49.391Z,990.20
2017-12-15T03:14:49.989Z,990.21
2017-12-15T03:14:50.588Z,990.21
2017-12-15T03:14:51.189Z,990.21
2017-12-15T03:14:51.789Z,990.22
2017-12-15T03:14:52.388Z,990.24
2017-12-15T03:14:52.987Z,990.23
2017-12-15T03:14:53.590Z,990.21
2017-12-15T03:15:47.043Z,990.18
2017-12-15T03:15:47.640Z,990.20
2017-12-15T03:15:48.244Z,990.20
2017-12-15T03:15:48.841Z,990.21
2017-12-15T03:15:49.440Z,990.21
2017-12-15T03:15:50.046Z,990.20
2017-12-15T03:15:50.640Z,990.19
2017-12-15T03:15:51.243Z,990.21
2017-12-15T03:16:44.727Z,990.23
2017-12-15T03:16:45.293Z,990.25
2017-12-15T03:16:45.893Z,990.21
2017-12-15T03:16:46.491Z,990.19
2017-12-15T03:16:47.092Z,990.19
2017-12-15T03:16:47.691Z,990.20
2017-12-15T03:16:48.292Z,990.23
2017-12-15T03:16:48.897Z,990.22
2017-12-15T03:17:42.348Z,990.19
2017-12-15T03:17:42.948Z,990.21
2017-12-15T03:17:43.543Z,990.22
2017-12-15T03:17:44.143Z,990.16
2017-12-15T03:17:44.743Z,990.19
2017-12-15T03:17:45.352Z,990.20
2017-12-15T03:17:45.947Z,990.19
2017-12-15T03:17:46.544Z,990.23
2017-12-15T03:18:39.998Z,990.23
2017-12-15T03:18:40.597Z,990.20
2017-12-15T03:18:41.192Z,990.22
2017-12-15T03:18:41.793Z,990.20
2017-12-15T03:18:42.393Z,990.22
2017-12-15T03:18:42.993Z,990.20
2017-12-15T03:18:43.591Z,990.20
2017-12-15T03:18:44.193Z,990.19
2017-12-15T03:19:37.651Z,990.19
2017-12-15T03:19:38.246Z,990.24
2017-12-15T03:19:38.846Z,990.22
2017-12-15T03:19:39.449Z,990.22
2017-12-15T03:19:40.045Z,990.24
2017-12-15T03:19:40.646Z,990.23
2017-12-15T03:19:41.246Z,990.19
2017-12-15T03:19:41.847Z,990.22
2017-12-15T03:20:35.302Z,990.20
2017-12-15T03:20:35.901Z,990.19
2017-12-15T03:20:36.498Z,990.22
2017-12-15T03:20:37.099Z,990.22
2017-12-15T03:20:37.698Z,990.21
2017-12-15T03:20:38.300Z,990.19
2017-12-15T03:20:38.904Z,990.18
2017-12-15T03:20:39.497Z,990.22
2017-12-15T03:21:32.954Z,990.21
2017-12-15T03:21:33.551Z,990.23
2017-12-15T03:21:34.151Z,990.24
2017-12-15T03:21:34.751Z,990.24
2017-12-15T03:21:35.351Z,990.22
2017-12-15T03:21:35.951Z,990.24
2017-12-15T03:21:36.557Z,990.23
2017-12-15T03:21:37.150Z,990.22
2017-12-15T03:22:30.638Z,990.23
2017-12-15T03:22:31.203Z,990.22
2017-12-15T03:22:31.801Z,990.21
2017-12-15T03:22:32.402Z,990.20
2017-12-15T03:22:33.002Z,990.23
2017-12-15T03:22:33.601Z,990.25
2017-12-15T03:22:34.201Z,990.22
2017-12-15T03:22:34.802Z,990.24
2017-12-15T03:23:28.256Z,990.23
2017-12-15T03:23:28.854Z,990.25
2017-12-15T03:23:29.454Z,990.25
2017-12-15T03:23:30.053Z,990.23
2017-12-15T03:23:30.653Z,990.21
2017-12-15T03:23:31.252Z,990.23
2017-12-15T03:23:31.860Z,990.23
2017-12-15T03:23:32.453Z,990.25
2017-12-15T03:24:25.909Z,990.28
2017-12-15T03:24:26.507Z,990.28
2017-12-15T03:24:27.108Z,990.26
2017-12-15T03:24:27.706Z,990.24
2017-12-15T03:24:28.305Z,990.27
2017-12-15T03:24:28.906Z,990.27
2017-12-15T03:24:29.509Z,990.25
2017-12-15T03:24:30.105Z,990.27
2017-12-15T03:25:23.560Z,990.26
2017-12-15T03:25:24.159Z,990.26
2017-12-15T03:25:24.756Z,990.27
2017-12-15T03:25:25.356Z,990.30
2017-12-15T03:25:25.957Z,990.26
2017-12-15T03:25:26.558Z,990.27